Time;durP1;ratioP1;P1;durP2;ratioP2;P2;SDS_P1;SDS_P2;PMS_P1;PMS_P2;Temp;Humidity;BMP_temperature;BMP_pressure;BME280_temperature;BME280_humidity;BME280_pressure;Samples;Min_cycle;Max_cycle;Signal;HPM_P1;HPM_P2
2022/04/05 00:01:49;;;;;;;3.27;1.97;;;10.70;99.90;;;;;;4994226;28;20178;-74
2022/04/05 00:04:15;;;;;;;2.13;1.93;;;10.70;99.90;;;;;;4992888;28;20195;-74
2022/04/05 00:06:41;;;;;;;2.07;1.87;;;10.70;99.90;;;;;;4992662;28;20172;-75
2022/04/05 00:09:07;;;;;;;2.07;1.97;;;10.70;99.90;;;;;;4993679;28;20171;-74
2022/04/05 00:11:33;;;;;;;2.40;2.20;;;10.70;99.90;;;;;;4993011;28;20302;-75
2022/04/05 00:14:00;;;;;;;1.90;1.70;;;10.70;99.90;;;;;;4993942;28;20675;-74
2022/04/05 00:16:26;;;;;;;1.98;1.88;;;10.70;99.90;;;;;;4992626;28;20194;-75
2022/04/05 00:18:52;;;;;;;1.80;1.70;;;10.70;99.90;;;;;;4993684;28;20193;-75
2022/04/05 00:21:18;;;;;;;3.80;2.07;;;10.80;99.90;;;;;;4993769;28;20230;-75
2022/04/05 00:23:44;;;;;;;2.97;2.20;;;10.80;99.90;;;;;;4993765;28;20209;-75
2022/04/05 00:26:09;;;;;;;2.23;2.03;;;10.80;99.90;;;;;;4992136;28;20229;-74
2022/04/05 00:28:35;;;;;;;2.20;2.00;;;10.80;99.90;;;;;;4992294;28;21098;-75
2022/04/05 00:31:01;;;;;;;2.20;2.00;;;10.80;99.90;;;;;;4992500;28;20596;-74
2022/04/05 00:33:28;;;;;;;2.75;2.55;;;10.80;99.90;;;;;;4993572;28;20211;-74
2022/04/05 00:35:53;;;;;;;2.33;2.13;;;10.80;99.90;;;;;;4993509;28;20199;-74
2022/04/05 00:38:19;;;;;;;1.83;1.73;;;10.80;99.90;;;;;;4993116;28;20666;-74
2022/04/05 00:40:45;;;;;;;2.80;2.60;;;10.80;99.90;;;;;;4993488;28;20985;-74
2022/04/05 00:43:11;;;;;;;2.13;1.97;;;10.80;99.90;;;;;;4991994;28;20203;-74
2022/04/05 00:45:36;;;;;;;2.10;1.90;;;10.80;99.90;;;;;;4993182;28;20187;-74
2022/04/05 00:48:04;;;;;;;2.43;2.23;;;10.80;99.90;;;;;;4992972;28;20175;-74
2022/04/05 00:50:36;;;;;;;2.05;1.85;;;10.80;99.90;;;;;;4991997;28;20171;-74
2022/04/05 00:53:05;;;;;;;2.25;2.15;;;10.80;99.90;;;;;;4993335;28;20177;-74
2022/04/05 00:55:32;;;;;;;2.95;2.75;;;10.80;99.90;;;;;;4992737;28;20191;-74
2022/04/05 00:58:01;;;;;;;2.47;2.28;;;10.80;99.90;;;;;;4991701;28;20280;-74
2022/04/05 01:00:27;;;;;;;2.70;2.50;;;10.90;99.90;;;;;;4993048;28;20167;-73
2022/04/05 01:02:54;;;;;;;2.57;2.37;;;10.80;99.90;;;;;;4991706;28;20179;-74
2022/04/05 01:05:22;;;;;;;3.20;3.00;;;10.80;99.90;;;;;;4992694;28;20625;-73
2022/04/05 01:07:50;;;;;;;3.17;2.88;;;10.80;99.90;;;;;;4991463;28;20182;-74
2022/04/05 01:10:16;;;;;;;4.22;2.70;;;10.90;99.90;;;;;;4992895;28;20194;-74
2022/04/05 01:12:42;;;;;;;2.97;2.77;;;10.90;99.90;;;;;;4993134;28;20623;-75
2022/04/05 01:15:08;;;;;;;3.85;3.55;;;10.90;99.90;;;;;;4991426;28;20603;-74
2022/04/05 01:17:35;;;;;;;3.33;3.13;;;10.90;99.90;;;;;;4992832;28;20233;-73
2022/04/05 01:20:02;;;;;;;3.50;3.20;;;10.90;99.90;;;;;;4975163;28;20167;-73
2022/04/05 01:22:28;;;;;;;3.58;3.35;;;11.00;99.90;;;;;;4990702;28;20511;-74
2022/04/05 01:24:54;;;;;;;4.15;3.85;;;11.00;99.90;;;;;;4989383;28;20297;-74
2022/04/05 01:27:19;;;;;;;4.07;3.60;;;11.00;99.90;;;;;;4991003;28;20250;-74
2022/04/05 01:29:47;;;;;;;3.83;3.53;;;11.00;99.90;;;;;;4992603;28;20167;-74
2022/04/05 01:32:13;;;;;;;4.25;3.47;;;11.00;99.90;;;;;;4992762;28;20722;-74
2022/04/05 01:34:39;;;;;;;3.80;3.47;;;11.00;99.90;;;;;;4992561;28;20210;-74
2022/04/05 01:37:08;;;;;;;3.78;3.35;;;11.10;99.90;;;;;;4991137;28;20174;-74
2022/04/05 01:39:36;;;;;;;4.30;4.00;;;11.10;99.90;;;;;;4992516;28;20613;-74
2022/04/05 01:42:05;;;;;;;4.15;3.75;;;11.10;99.90;;;;;;4992599;28;20253;-74
2022/04/05 01:44:32;;;;;;;3.80;3.60;;;11.10;99.90;;;;;;4992291;28;20187;-74
2022/04/05 01:47:09;;;;;;;4.97;4.57;;;11.10;99.90;;;;;;4991301;28;20234;-74
2022/04/05 01:49:39;;;;;;;4.60;4.20;;;11.20;99.90;;;;;;4991430;28;20228;-74
2022/04/05 01:52:06;;;;;;;4.25;3.95;;;11.20;99.90;;;;;;4992644;28;20171;-74
2022/04/05 01:54:32;;;;;;;3.92;3.63;;;11.20;99.90;;;;;;4992425;28;20178;-74
2022/04/05 01:56:58;;;;;;;4.70;3.25;;;11.20;99.90;;;;;;4992362;28;20206;-74
2022/04/05 01:59:31;;;;;;;3.00;2.80;;;11.20;99.90;;;;;;4991565;28;20195;-74
2022/04/05 02:01:57;;;;;;;3.47;3.17;;;11.20;99.90;;;;;;4992945;28;20605;-74
2022/04/05 02:04:23;;;;;;;3.27;2.97;;;11.20;99.90;;;;;;4974819;28;20281;-73
2022/04/05 02:06:49;;;;;;;3.20;2.90;;;11.30;99.90;;;;;;4992131;28;20567;-74
2022/04/05 02:09:16;;;;;;;3.40;3.10;;;11.30;99.90;;;;;;4990702;28;20215;-74
2022/04/05 02:11:47;;;;;;;3.35;3.08;;;11.30;99.90;;;;;;4992273;28;20678;-74
2022/04/05 02:14:31;;;;;;;3.60;3.30;;;11.30;99.90;;;;;;4992215;28;20175;-74
2022/04/05 02:17:00;;;;;;;3.78;3.42;;;11.40;99.90;;;;;;4990891;28;20257;-73
2022/04/05 02:19:27;;;;;;;4.45;4.05;;;11.40;99.90;;;;;;4974454;28;20214;-74
2022/04/05 02:21:54;;;;;;;4.35;4.05;;;11.40;99.90;;;;;;4991028;28;20182;-73
2022/04/05 02:24:22;;;;;;;4.57;4.18;;;11.40;99.90;;;;;;4991103;28;20206;-74
2022/04/05 02:26:49;;;;;;;3.53;3.22;;;11.40;99.90;;;;;;4991499;28;20691;-73
2022/04/05 02:29:17;;;;;;;4.32;4.03;;;11.40;99.90;;;;;;4975014;28;20175;-74
2022/04/05 02:31:47;;;;;;;4.13;3.83;;;11.40;99.90;;;;;;4992083;28;20666;-74
2022/04/05 02:34:13;;;;;;;4.30;3.90;;;11.40;99.90;;;;;;4991180;28;20179;-74
2022/04/05 02:36:44;;;;;;;4.88;4.45;;;11.40;99.90;;;;;;4991441;28;20668;-74
2022/04/05 02:39:15;;;;;;;3.67;3.38;;;11.40;99.90;;;;;;4990868;28;20182;-74
2022/04/05 02:41:42;;;;;;;4.45;4.10;;;11.40;99.90;;;;;;4990819;28;20178;-74
2022/04/05 02:44:09;;;;;;;4.07;3.78;;;11.50;99.90;;;;;;4990777;28;20213;-74
2022/04/05 02:46:37;;;;;;;4.85;4.45;;;11.50;99.90;;;;;;4990544;28;20274;-74
2022/04/05 02:49:03;;;;;;;4.15;3.85;;;11.50;99.90;;;;;;4972848;28;20194;-74
2022/04/05 02:51:34;;;;;;;4.68;3.75;;;11.50;99.90;;;;;;4989178;28;20210;-74
2022/04/05 02:54:05;;;;;;;4.88;4.47;;;11.50;99.90;;;;;;4990701;28;20226;-74
2022/04/05 02:56:34;;;;;;;4.90;4.50;;;11.50;99.90;;;;;;4988727;28;20211;-74
2022/04/05 02:59:00;;;;;;;4.25;3.95;;;11.60;99.90;;;;;;4988608;28;20163;-74
2022/04/05 03:01:27;;;;;;;4.72;4.43;;;11.60;99.90;;;;;;4988773;28;20611;-74
2022/04/05 03:03:57;;;;;;;4.60;4.30;;;11.60;99.90;;;;;;4988904;28;20519;-74
2022/04/05 03:06:23;;;;;;;4.70;4.30;;;11.60;99.90;;;;;;4988886;28;20191;-74
2022/04/05 03:08:56;;;;;;;5.30;4.90;;;11.60;99.90;;;;;;4988929;28;20202;-75
2022/04/05 03:11:22;;;;;;;5.05;4.65;;;11.60;99.90;;;;;;4976093;28;20308;-74
2022/04/05 03:13:50;;;;;;;4.95;4.57;;;11.60;99.90;;;;;;4976127;28;20167;-74
2022/04/05 03:16:16;;;;;;;5.90;5.47;;;11.60;99.90;;;;;;4993566;28;20670;-74
2022/04/05 03:18:46;;;;;;;5.10;4.70;;;11.70;99.90;;;;;;4992093;28;20593;-73
2022/04/05 03:21:13;;;;;;;4.80;4.40;;;11.70;99.90;;;;;;4975895;28;20270;-74
2022/04/05 03:23:39;;;;;;;5.57;5.18;;;11.70;99.90;;;;;;4993594;28;20394;-74
2022/04/05 03:26:06;;;;;;;4.95;4.55;;;11.70;99.90;;;;;;4992341;28;20501;-74
2022/04/05 03:28:33;;;;;;;5.55;5.05;;;11.70;99.90;;;;;;4991834;28;20237;-74
2022/04/05 03:31:01;;;;;;;6.00;5.40;;;11.70;99.90;;;;;;4976092;28;20164;-75
2022/04/05 03:33:27;;;;;;;5.40;4.90;;;11.70;99.90;;;;;;4992097;28;20171;-74
2022/04/05 03:35:55;;;;;;;6.15;5.65;;;11.70;99.90;;;;;;4991810;28;20285;-75
2022/04/05 03:38:22;;;;;;;6.05;5.55;;;11.70;99.90;;;;;;4991886;28;20206;-75
2022/04/05 03:40:49;;;;;;;5.78;5.38;;;11.70;99.90;;;;;;4991768;28;20218;-75
2022/04/05 03:43:16;;;;;;;5.53;5.13;;;11.70;99.90;;;;;;4991839;28;20217;-74
2022/04/05 03:45:47;;;;;;;6.05;5.65;;;11.70;99.90;;;;;;4991957;28;20587;-74
2022/04/05 03:48:14;;;;;;;6.70;6.20;;;11.80;99.90;;;;;;4991627;28;20179;-75
2022/04/05 03:50:41;;;;;;;5.68;5.28;;;11.80;99.90;;;;;;4975914;28;20498;-75
2022/04/05 03:53:08;;;;;;;6.10;5.60;;;11.80;99.90;;;;;;4991754;28;20274;-74
2022/04/05 03:55:34;;;;;;;5.82;5.05;;;11.80;99.90;;;;;;4991818;28;20187;-74
2022/04/05 03:58:02;;;;;;;5.43;4.93;;;11.80;99.90;;;;;;4991640;28;20189;-74
2022/04/05 04:00:29;;;;;;;6.30;5.80;;;11.80;99.90;;;;;;4991448;28;20171;-74
2022/04/05 04:03:17;;;;;;;5.78;5.28;;;11.80;99.90;;;;;;4991864;28;20281;-74
2022/04/05 04:05:45;;;;;;;5.53;5.03;;;11.80;99.90;;;;;;4991691;28;20596;-74
2022/04/05 04:08:12;;;;;;;6.78;6.13;;;11.90;99.90;;;;;;4991107;28;20171;-74
2022/04/05 04:10:38;;;;;;;6.80;6.30;;;11.90;99.90;;;;;;4991434;28;20454;-74
2022/04/05 04:13:05;;;;;;;7.28;6.70;;;11.90;99.90;;;;;;4975196;28;20261;-74
2022/04/05 04:15:37;;;;;;;7.82;7.22;;;11.90;99.90;;;;;;4991491;28;20740;-74
2022/04/05 04:18:03;;;;;;;7.90;7.20;;;11.90;99.90;;;;;;4991110;28;20178;-74
2022/04/05 04:20:31;;;;;;;8.40;7.75;;;11.90;99.90;;;;;;4990511;28;20186;-74
2022/04/05 04:22:57;;;;;;;8.00;7.40;;;11.90;99.90;;;;;;4991305;28;20246;-74
2022/04/05 04:25:24;;;;;;;7.30;6.70;;;11.90;99.90;;;;;;4974779;28;20614;-74
2022/04/05 04:27:51;;;;;;;7.85;7.05;;;12.00;99.90;;;;;;4991055;28;20556;-74
2022/04/05 04:30:17;;;;;;;8.43;7.70;;;12.00;99.90;;;;;;4992486;28;20164;-74
2022/04/05 04:32:43;;;;;;;10.23;9.33;;;12.00;99.90;;;;;;4992259;28;20258;-74
2022/04/05 04:35:09;;;;;;;8.80;8.10;;;12.00;99.90;;;;;;4992133;28;20186;-74
2022/04/05 04:37:36;;;;;;;10.00;8.37;;;11.90;99.90;;;;;;4990747;28;20629;-74
2022/04/05 04:40:02;;;;;;;9.02;8.32;;;11.90;99.90;;;;;;4992105;28;20673;-75
2022/04/05 04:42:28;;;;;;;8.10;7.30;;;11.90;99.90;;;;;;4992144;28;20167;-74
2022/04/05 04:44:53;;;;;;;8.13;7.43;;;12.00;99.90;;;;;;4990454;28;20947;-74
2022/04/05 04:47:19;;;;;;;8.67;7.77;;;12.00;99.90;;;;;;4991800;28;20191;-74
2022/04/05 04:49:45;;;;;;;9.20;8.43;;;12.00;99.90;;;;;;4974414;28;20181;-74
2022/04/05 04:52:11;;;;;;;9.40;8.50;;;12.00;99.90;;;;;;4993548;28;20170;-74
2022/04/05 04:54:36;;;;;;;10.03;9.13;;;12.00;99.90;;;;;;4992145;28;20545;-74
2022/04/05 04:57:02;;;;;;;10.03;9.03;;;12.00;99.90;;;;;;4976007;28;20583;-74
2022/04/05 04:59:28;;;;;;;10.93;9.93;;;12.00;99.90;;;;;;4991903;28;20171;-74
2022/04/05 05:01:54;;;;;;;11.50;10.60;;;12.00;99.90;;;;;;4991848;28;20559;-74
2022/04/05 05:04:20;;;;;;;9.80;8.80;;;12.00;99.90;;;;;;4993216;28;20199;-74
2022/04/05 05:06:45;;;;;;;10.60;9.70;;;12.00;99.90;;;;;;4997980;28;20589;-76
2022/04/05 05:09:11;;;;;;;9.83;9.03;;;12.00;99.90;;;;;;5005561;28;20170;-76
2022/04/05 05:11:37;;;;;;;10.23;9.30;;;12.10;99.90;;;;;;5012755;28;20202;-76
2022/04/05 05:14:03;;;;;;;10.47;9.57;;;12.10;99.90;;;;;;5011647;28;20569;-76
2022/04/05 05:16:29;;;;;;;11.10;10.20;;;12.10;99.90;;;;;;5011195;28;20640;-75
2022/04/05 05:18:54;;;;;;;11.47;10.33;;;12.10;99.90;;;;;;5005147;28;20595;-76
2022/04/05 05:21:21;;;;;;;10.90;10.00;;;12.10;99.90;;;;;;5002777;28;20598;-76
2022/04/05 05:23:46;;;;;;;11.57;10.52;;;12.10;99.90;;;;;;5027358;28;20194;-77
2022/04/05 05:26:13;;;;;;;10.63;9.63;;;12.20;99.90;;;;;;5012180;28;20293;-76
2022/04/05 05:28:38;;;;;;;11.38;10.32;;;12.20;99.90;;;;;;5010705;28;20578;-76
2022/04/05 05:31:04;;;;;;;11.43;10.53;;;12.20;99.90;;;;;;5010765;28;20731;-76
2022/04/05 05:33:31;;;;;;;12.07;10.77;;;12.20;99.90;;;;;;5010943;28;20179;-76
2022/04/05 05:35:58;;;;;;;12.70;10.90;;;12.20;99.90;;;;;;5008796;28;20277;-76
2022/04/05 05:38:24;;;;;;;9.82;9.02;;;12.20;99.90;;;;;;5012071;28;20262;-76
2022/04/05 05:40:50;;;;;;;11.15;10.15;;;12.30;99.90;;;;;;4978552;28;20186;-75
2022/04/05 05:43:16;;;;;;;10.50;9.50;;;12.30;99.90;;;;;;5012699;28;20197;-75
2022/04/05 05:45:42;;;;;;;12.10;10.90;;;12.30;99.90;;;;;;5008723;28;21189;-75
2022/04/05 05:48:08;;;;;;;11.37;10.30;;;12.30;99.90;;;;;;5013184;28;20872;-76
2022/04/05 05:50:36;;;;;;;9.80;9.00;;;12.30;99.90;;;;;;5014514;28;20566;-75
2022/04/05 05:53:02;;;;;;;9.35;8.55;;;12.30;99.90;;;;;;5009968;28;20182;-75
2022/04/05 05:55:30;;;;;;;11.57;10.38;;;12.30;99.90;;;;;;5000426;28;20264;-76
2022/04/05 05:57:56;;;;;;;9.97;9.07;;;12.30;99.90;;;;;;5026672;28;20238;-76
2022/04/05 06:00:23;;;;;;;10.13;9.30;;;12.30;99.90;;;;;;5020097;28;20790;-76
2022/04/05 06:02:56;;;;;;;11.05;10.13;;;12.30;99.90;;;;;;5004671;28;20558;-75
2022/04/05 06:05:23;;;;;;;11.10;9.82;;;12.30;99.90;;;;;;5015156;28;20205;-77
2022/04/05 06:07:48;;;;;;;10.20;9.30;;;12.30;99.90;;;;;;5011628;28;20224;-77
2022/04/05 06:10:15;;;;;;;10.83;9.60;;;12.30;99.90;;;;;;5011919;28;20178;-77
2022/04/05 06:12:43;;;;;;;10.90;9.73;;;12.30;99.90;;;;;;5011386;28;20257;-77
2022/04/05 06:15:12;;;;;;;11.30;10.10;;;12.30;99.90;;;;;;5012316;28;20186;-77
2022/04/05 06:17:40;;;;;;;10.18;9.25;;;12.40;99.90;;;;;;5011666;28;20171;-77
2022/04/05 06:20:07;;;;;;;10.98;9.95;;;12.40;99.90;;;;;;4981838;28;20314;-77
2022/04/05 06:22:42;;;;;;;11.23;10.18;;;12.40;99.90;;;;;;5009929;28;20815;-77
2022/04/05 06:25:10;;;;;;;11.73;10.55;;;12.40;99.90;;;;;;5011750;28;20205;-78
2022/04/05 06:27:37;;;;;;;12.38;11.27;;;12.40;99.90;;;;;;5014568;28;20158;-77
2022/04/05 06:30:04;;;;;;;10.82;9.88;;;12.40;99.90;;;;;;4995188;28;20175;-77
2022/04/05 06:32:30;;;;;;;11.48;10.32;;;12.40;99.90;;;;;;5012375;28;20170;-78
2022/04/05 06:34:55;;;;;;;11.37;10.37;;;12.40;99.90;;;;;;5012444;28;20243;-78
2022/04/05 06:37:21;;;;;;;10.40;9.47;;;12.40;99.90;;;;;;5029221;28;20167;-77
2022/04/05 06:39:48;;;;;;;12.53;11.27;;;12.40;99.90;;;;;;4997579;28;20185;-77
2022/04/05 06:42:14;;;;;;;10.73;9.80;;;12.40;99.90;;;;;;4990493;28;20249;-77
2022/04/05 06:44:39;;;;;;;11.63;10.53;;;12.40;99.90;;;;;;4992707;28;20812;-77
2022/04/05 06:47:06;;;;;;;10.60;9.70;;;12.40;99.90;;;;;;5008584;28;20599;-77
2022/04/05 06:49:32;;;;;;;11.00;10.00;;;12.40;99.90;;;;;;5014787;28;20174;-76
2022/04/05 06:51:58;;;;;;;10.95;9.95;;;12.50;99.90;;;;;;5011409;28;20209;-77
2022/04/05 06:54:24;;;;;;;9.93;8.93;;;12.50;99.90;;;;;;5007554;28;20297;-77
2022/04/05 06:56:50;;;;;;;10.40;9.33;;;12.50;99.90;;;;;;5014719;28;20178;-77
2022/04/05 06:59:15;;;;;;;10.50;9.50;;;12.50;99.90;;;;;;5013500;28;20516;-77
2022/04/05 07:01:41;;;;;;;9.97;8.97;;;12.50;99.90;;;;;;5013630;28;20653;-77
2022/04/05 07:04:07;;;;;;;10.10;9.20;;;12.50;99.90;;;;;;5015033;28;20224;-77
2022/04/05 07:06:33;;;;;;;9.83;8.93;;;12.60;99.90;;;;;;5014145;28;20567;-78
2022/04/05 07:08:58;;;;;;;9.40;8.60;;;12.60;99.90;;;;;;5012658;28;20535;-78
2022/04/05 07:11:25;;;;;;;9.60;8.80;;;12.60;99.90;;;;;;5013573;28;20569;-77
2022/04/05 07:13:51;;;;;;;10.55;9.45;;;12.60;99.90;;;;;;5014908;28;20288;-77
2022/04/05 07:16:18;;;;;;;9.13;8.15;;;12.60;99.90;;;;;;5014616;28;20713;-77
2022/04/05 07:18:44;;;;;;;8.35;7.55;;;12.60;99.90;;;;;;5013060;28;20733;-77
2022/04/05 07:21:11;;;;;;;8.90;8.00;;;12.60;99.90;;;;;;5013382;28;20174;-77
2022/04/05 07:23:37;;;;;;;12.07;8.77;;;12.60;99.90;;;;;;5014762;28;20625;-76
2022/04/05 07:26:03;;;;;;;8.47;7.67;;;12.60;99.90;;;;;;5014793;28;20560;-77
2022/04/05 07:28:29;;;;;;;8.77;7.88;;;12.70;99.90;;;;;;5015081;28;20162;-77
2022/04/05 07:30:55;;;;;;;8.03;7.33;;;12.60;99.90;;;;;;5017421;28;20649;-77
2022/04/05 07:33:21;;;;;;;8.10;7.40;;;12.60;99.90;;;;;;5018181;28;20565;-77
2022/04/05 07:35:47;;;;;;;7.83;7.13;;;12.60;99.90;;;;;;5021117;28;20226;-77
2022/04/05 07:38:12;;;;;;;7.20;6.60;;;12.70;99.90;;;;;;5016759;28;20211;-77
2022/04/05 07:40:52;;;;;;;8.30;7.20;;;12.70;99.90;;;;;;5014873;28;20701;-76
2022/04/05 07:43:28;;;;;;;11.43;8.93;;;12.70;99.90;;;;;;5014289;28;20681;-76
2022/04/05 07:45:54;;;;;;;9.48;8.60;;;12.70;99.90;;;;;;5014326;28;20538;-75
2022/04/05 07:48:28;;;;;;;10.38;7.78;;;12.70;99.90;;;;;;5013274;28;20178;-75
2022/04/05 07:50:54;;;;;;;8.05;7.28;;;12.70;99.90;;;;;;5012905;28;20798;-75
2022/04/05 07:53:20;;;;;;;8.55;7.63;;;12.80;99.90;;;;;;5013925;28;20657;-75
2022/04/05 07:55:46;;;;;;;8.13;7.33;;;12.80;99.90;;;;;;5011557;28;20198;-75
2022/04/05 07:58:12;;;;;;;8.25;7.45;;;12.80;99.90;;;;;;5013430;28;20201;-75
2022/04/05 08:00:38;;;;;;;7.88;7.18;;;12.80;99.90;;;;;;5013817;28;20166;-75
2022/04/05 08:03:05;;;;;;;7.85;7.05;;;12.80;99.90;;;;;;5012888;28;20213;-75
2022/04/05 08:05:30;;;;;;;7.35;6.60;;;12.90;99.90;;;;;;5012432;28;20194;-75
2022/04/05 08:07:56;;;;;;;6.10;5.50;;;12.90;99.90;;;;;;4996007;28;20169;-76
2022/04/05 08:10:22;;;;;;;5.53;5.03;;;12.90;99.90;;;;;;5013591;28;20194;-75
2022/04/05 08:12:50;;;;;;;5.18;4.75;;;12.90;99.90;;;;;;5009607;28;20187;-75
2022/04/05 08:15:21;;;;;;;5.60;5.10;;;12.90;99.90;;;;;;5013350;28;20182;-74
2022/04/05 08:17:48;;;;;;;5.32;4.88;;;13.00;99.90;;;;;;5013362;28;20176;-75
2022/04/05 08:20:15;;;;;;;5.25;4.75;;;13.00;99.90;;;;;;5013288;28;20532;-74
2022/04/05 08:22:41;;;;;;;5.88;5.38;;;13.00;99.90;;;;;;5005197;28;20167;-75
2022/04/05 08:25:09;;;;;;;5.55;5.05;;;13.00;99.90;;;;;;5002071;28;20198;-76
2022/04/05 08:27:36;;;;;;;5.72;5.32;;;13.00;99.90;;;;;;5012894;28;20232;-75
2022/04/05 08:30:03;;;;;;;8.90;6.33;;;13.00;99.90;;;;;;5013061;28;20282;-75
2022/04/05 08:32:29;;;;;;;6.63;6.13;;;13.10;99.90;;;;;;5013226;28;20565;-76
2022/04/05 08:34:55;;;;;;;6.57;5.87;;;13.10;99.90;;;;;;5012864;28;20190;-76
2022/04/05 08:37:22;;;;;;;7.50;6.83;;;13.10;99.90;;;;;;5011517;28;20324;-76
2022/04/05 08:39:49;;;;;;;7.93;7.13;;;13.10;99.90;;;;;;4995144;28;20986;-76
2022/04/05 08:42:15;;;;;;;7.40;6.80;;;13.10;99.90;;;;;;4991858;28;20575;-76
2022/04/05 08:44:45;;;;;;;7.65;6.95;;;13.10;99.90;;;;;;4993331;28;20209;-76
2022/04/05 08:47:12;;;;;;;7.38;6.78;;;13.20;99.90;;;;;;4998318;28;20198;-76
2022/04/05 08:49:38;;;;;;;8.63;7.75;;;13.20;99.90;;;;;;5012705;28;20221;-76
2022/04/05 08:52:05;;;;;;;8.25;7.45;;;13.20;99.90;;;;;;5011686;28;20225;-76
2022/04/05 08:54:31;;;;;;;8.98;8.27;;;13.30;99.90;;;;;;5012549;28;20257;-76
2022/04/05 08:56:56;;;;;;;11.60;10.40;;;13.30;99.90;;;;;;5008441;28;20229;-76
2022/04/05 08:59:22;;;;;;;9.80;8.90;;;13.40;99.90;;;;;;4986386;28;20245;-76
2022/04/05 09:01:50;;;;;;;8.77;7.97;;;13.40;99.90;;;;;;4987180;28;20270;-76
2022/04/05 09:04:15;;;;;;;10.55;9.52;;;13.50;99.90;;;;;;4992926;28;20187;-76
2022/04/05 09:06:41;;;;;;;9.30;8.50;;;13.50;99.90;;;;;;4991300;28;20515;-76
2022/04/05 09:09:12;;;;;;;10.17;9.17;;;13.60;99.90;;;;;;4992635;28;20171;-76
2022/04/05 09:11:54;;;;;;;8.55;7.75;;;13.70;99.90;;;;;;4992672;28;20167;-76
2022/04/05 09:14:25;;;;;;;11.38;10.48;;;13.70;99.90;;;;;;4989054;28;20562;-76
2022/04/05 09:17:09;;;;;;;10.63;9.73;;;13.80;99.90;;;;;;4984506;28;20179;-76
2022/04/05 09:19:42;;;;;;;10.13;9.20;;;13.90;99.90;;;;;;4989145;28;20207;-76
2022/04/05 09:22:08;;;;;;;11.38;10.27;;;13.90;99.90;;;;;;4993539;28;20229;-76
2022/04/05 09:24:35;;;;;;;10.60;9.80;;;13.90;99.90;;;;;;4991760;28;20199;-76
2022/04/05 09:27:01;;;;;;;13.23;11.93;;;13.90;99.90;;;;;;4984787;28;20935;-75
2022/04/05 09:29:40;;;;;;;12.23;11.02;;;14.00;99.90;;;;;;4992334;28;20182;-75
2022/04/05 09:32:07;;;;;;;11.77;10.73;;;13.90;99.90;;;;;;4991265;28;20721;-75
2022/04/05 09:34:46;;;;;;;12.17;11.20;;;13.90;99.90;;;;;;4992115;28;20174;-75
2022/04/05 09:37:12;;;;;;;11.47;10.47;;;13.90;99.90;;;;;;4992042;28;20911;-75
2022/04/05 09:39:38;;;;;;;12.20;10.67;;;14.00;99.90;;;;;;4992216;28;21213;-75
2022/04/05 09:42:08;;;;;;;12.27;11.27;;;14.00;99.90;;;;;;5007189;28;20739;-75
2022/04/05 09:44:40;;;;;;;12.77;11.57;;;14.00;99.90;;;;;;5011441;28;20209;-75
2022/04/05 09:47:16;;;;;;;10.93;10.13;;;14.00;99.90;;;;;;5000459;28;20598;-75
2022/04/05 09:49:44;;;;;;;9.98;9.18;;;13.90;99.90;;;;;;4992378;28;20590;-74
2022/04/05 09:52:26;;;;;;;10.63;9.73;;;14.00;99.90;;;;;;4989274;28;20179;-75
2022/04/05 09:54:53;;;;;;;11.30;10.30;;;13.90;99.90;;;;;;4994819;28;20194;-75
2022/04/05 09:57:30;;;;;;;10.93;10.03;;;13.90;99.90;;;;;;4997603;28;20712;-75
2022/04/05 10:00:10;;;;;;;11.50;10.50;;;13.90;99.90;;;;;;5005524;28;20646;-75
2022/04/05 10:03:09;;;;;;;10.15;9.25;;;13.90;99.90;;;;;;4994393;28;20185;-76
2022/04/05 10:05:36;;;;;;;11.63;10.63;;;14.00;99.90;;;;;;4994522;28;20202;-75
2022/04/05 10:08:03;;;;;;;11.90;10.90;;;14.00;99.90;;;;;;4990150;28;20229;-75
2022/04/05 10:10:29;;;;;;;9.63;8.80;;;14.10;99.90;;;;;;4990506;28;20175;-74
2022/04/05 10:12:55;;;;;;;11.10;10.00;;;14.10;99.90;;;;;;4991595;28;20254;-75
2022/04/05 10:15:22;;;;;;;10.57;9.30;;;14.10;99.90;;;;;;4990647;28;20199;-75
2022/04/05 10:17:56;;;;;;;10.40;9.40;;;14.10;99.90;;;;;;4990169;28;20606;-76
2022/04/05 10:20:23;;;;;;;9.90;9.10;;;14.20;99.90;;;;;;4989713;28;20229;-77
2022/04/05 10:22:57;;;;;;;9.67;8.90;;;14.20;99.90;;;;;;4989022;28;20950;-76
2022/04/05 10:25:24;;;;;;;8.97;8.17;;;14.30;99.90;;;;;;4973888;28;20626;-76
2022/04/05 10:27:50;;;;;;;9.30;8.50;;;14.40;99.90;;;;;;4991225;28;20582;-76
2022/04/05 10:30:24;;;;;;;8.97;8.17;;;14.50;99.90;;;;;;4991368;28;20644;-75
2022/04/05 10:32:59;;;;;;;9.03;8.33;;;14.60;99.90;;;;;;4991269;28;21126;-75
2022/04/05 10:35:26;;;;;;;8.13;7.43;;;14.70;99.90;;;;;;4987296;28;20617;-76
2022/04/05 10:38:13;;;;;;;8.03;7.43;;;14.80;99.90;;;;;;4991035;28;20586;-75
2022/04/05 10:40:40;;;;;;;6.77;6.17;;;15.00;99.90;;;;;;4991466;28;20578;-76
2022/04/05 10:43:17;;;;;;;7.30;6.70;;;15.20;99.90;;;;;;4990028;28;20590;-76
2022/04/05 10:45:44;;;;;;;7.20;6.50;;;15.40;99.90;;;;;;4991626;28;20606;-76
2022/04/05 10:48:13;;;;;;;7.27;6.57;;;15.50;99.90;;;;;;4973564;28;20607;-76
2022/04/05 10:50:44;;;;;;;5.37;4.97;;;15.70;99.90;;;;;;4991303;28;20586;-76
2022/04/05 10:53:22;;;;;;;7.43;5.70;;;15.80;99.90;;;;;;4990187;28;20587;-76
2022/04/05 10:56:03;;;;;;;5.80;5.33;;;15.90;99.90;;;;;;4991334;28;20610;-76
2022/04/05 10:58:30;;;;;;;6.17;5.67;;;16.00;99.90;;;;;;4990873;28;20669;-76
2022/04/05 11:01:18;;;;;;;6.27;5.67;;;16.00;99.90;;;;;;4983428;28;20607;-76
2022/04/05 11:04:14;;;;;;;5.80;5.30;;;16.10;99.90;;;;;;4989871;28;20994;-77
2022/04/05 11:06:58;;;;;;;6.10;5.60;;;16.10;99.90;;;;;;4989547;28;20603;-75
2022/04/05 11:09:30;;;;;;;6.27;5.67;;;16.10;99.90;;;;;;4990717;28;20665;-76
2022/04/05 11:11:56;;;;;;;7.70;7.10;;;16.10;99.90;;;;;;4989773;28;20602;-75
2022/04/05 11:14:38;;;;;;;7.77;7.07;;;16.20;99.90;;;;;;4990921;28;20581;-76
2022/04/05 11:17:06;;;;;;;6.90;6.30;;;16.20;99.90;;;;;;4991091;28;20624;-75
2022/04/05 11:19:41;;;;;;;7.27;6.67;;;16.20;99.90;;;;;;4989938;28;20949;-76
2022/04/05 11:22:23;;;;;;;7.47;6.77;;;16.20;99.90;;;;;;4986696;28;20602;-77
2022/04/05 11:25:06;;;;;;;6.87;6.27;;;16.20;99.90;;;;;;4990648;28;20788;-77
2022/04/05 11:27:44;;;;;;;6.93;6.33;;;16.20;99.90;;;;;;4990427;28;20585;-77
2022/04/05 11:30:26;;;;;;;7.20;6.60;;;16.20;99.90;;;;;;4987549;28;21006;-77
2022/04/05 11:33:16;;;;;;;8.73;7.93;;;16.20;99.90;;;;;;5001028;28;20594;-77
2022/04/05 11:35:43;;;;;;;7.03;6.50;;;16.20;99.90;;;;;;4986909;28;20626;-77
2022/04/05 11:38:38;;;;;;;7.33;6.63;;;16.20;99.90;;;;;;4990611;28;20586;-76
2022/04/05 11:41:18;;;;;;;7.37;6.67;;;16.20;99.90;;;;;;4989927;28;20586;-76
2022/04/05 11:43:48;;;;;;;7.10;6.50;;;16.20;99.90;;;;;;4993769;28;20651;-76
2022/04/05 11:46:17;;;;;;;7.27;6.67;;;16.30;99.90;;;;;;4994166;28;21234;-76
2022/04/05 11:48:46;;;;;;;7.60;6.80;;;16.30;99.90;;;;;;4994227;28;20613;-76
2022/04/05 11:51:14;;;;;;;7.00;5.67;;;16.40;99.90;;;;;;4997939;28;20597;-76
2022/04/05 11:53:42;;;;;;;6.77;6.03;;;16.40;99.90;;;;;;5012303;28;20589;-76
2022/04/05 11:56:12;;;;;;;8.73;5.67;;;16.40;99.90;;;;;;5013867;28;20612;-76
2022/04/05 11:58:46;;;;;;;8.90;6.50;;;16.40;99.90;;;;;;5011973;28;20569;-76
2022/04/05 12:01:34;;;;;;;7.07;6.47;;;16.40;99.90;;;;;;5010532;28;21120;-76
2022/04/05 12:04:06;;;;;;;5.20;4.80;;;16.30;99.90;;;;;;5012203;28;20675;-76
2022/04/05 12:06:34;;;;;;;4.23;3.83;;;16.30;99.90;;;;;;4993486;28;21181;-77
2022/04/05 12:09:03;;;;;;;5.10;4.60;;;16.20;99.90;;;;;;4993555;28;20597;-77
2022/04/05 12:11:31;;;;;;;6.33;5.63;;;16.20;99.90;;;;;;4994058;28;20586;-76
2022/04/05 12:14:11;;;;;;;5.07;4.70;;;16.20;99.90;;;;;;4991188;28;20597;-76
2022/04/05 12:16:50;;;;;;;6.07;4.70;;;16.10;99.90;;;;;;4991211;28;20618;-75
2022/04/05 12:19:24;;;;;;;6.10;4.90;;;16.00;99.90;;;;;;4993802;28;20586;-76
2022/04/05 12:22:10;;;;;;;6.77;5.30;;;15.90;99.90;;;;;;4989298;28;20649;-76
2022/04/05 12:24:50;;;;;;;6.30;5.80;;;15.80;99.90;;;;;;5015314;28;20644;-75
2022/04/05 12:27:21;;;;;;;8.83;7.47;;;15.70;99.90;;;;;;5008189;28;21199;-77
2022/04/05 12:29:47;;;;;;;8.30;7.50;;;15.70;99.90;;;;;;5003911;28;21166;-77
2022/04/05 12:32:16;;;;;;;7.63;6.97;;;15.60;99.90;;;;;;5008128;28;20609;-78
2022/04/05 12:34:42;;;;;;;7.45;6.78;;;15.60;99.90;;;;;;5013926;28;20604;-78
2022/04/05 12:37:14;;;;;;;7.37;6.87;;;15.60;99.90;;;;;;5014157;28;20162;-78
2022/04/05 12:39:43;;;;;;;8.77;8.07;;;15.60;99.90;;;;;;5013584;28;20581;-76
2022/04/05 12:42:10;;;;;;;6.33;5.73;;;15.70;99.90;;;;;;5002157;28;20587;-76
2022/04/05 12:44:42;;;;;;;8.00;7.30;;;15.70;99.90;;;;;;4996184;28;21204;-76
2022/04/05 12:47:22;;;;;;;9.70;8.80;;;15.70;99.90;;;;;;4999331;28;20648;-76
2022/04/05 12:49:53;;;;;;;10.10;9.20;;;15.70;99.90;;;;;;4980947;28;20660;-76
2022/04/05 12:52:24;;;;;;;7.83;7.23;;;15.80;99.90;;;;;;5001983;28;20563;-76